Time,TemperatureF,DewpointF,PressureIn,WindDirection,WindDirectionDegrees,WindSpeedMPH,WindSpeedGustMPH,Humidity,HourlyPrecipIn,Conditions,Clouds,dailyrainin,SoftwareType,DateUTC
2013-01-30 00:00:00,37.6,36.3,29.41,NNW,348,8.0,10.0,95,0.04,,FEW120,1.19,VWS V14.01,2013-01-30 06:00:00,
2013-01-30 00:05:00,37.7,36.4,29.40,NNW,344,9.0,9.0,95,0.04,,-RA,0.00,VWS V14.01,2013-01-30 06:05:00,
2013-01-30 00:10:00,37.5,36.2,29.39,North,355,3.0,14.0,95,0.04,,-RA,0.01,VWS V14.01,2013-01-30 06:10:00,
2013-01-30 00:15:00,37.5,36.2,29.38,North,5,3.0,17.0,95,0.05,,-RA,0.02,VWS V14.01,2013-01-30 06:15:00,
2013-01-30 00:20:00,37.4,36.1,29.38,North,350,10.0,14.0,95,0.04,,-RA,0.02,VWS V14.01,2013-01-30 06:20:00,
2013-01-30 00:25:00,37.3,36.3,29.37,NNW,344,9.0,15.0,96,0.04,,-RA,0.02,VWS V14.01,2013-01-30 06:25:00,
2013-01-30 00:30:00,37.3,36.3,29.38,North,360,6.0,15.0,96,0.04,,-RA,0.03,VWS V14.01,2013-01-30 06:30:00,
2013-01-30 00:35:00,37.2,36.2,29.38,NNW,333,6.0,19.0,96,0.04,,-RA,0.03,VWS V14.01,2013-01-30 06:35:00,
2013-01-30 00:40:00,37.1,36.1,29.36,NNE,22,5.0,15.0,96,0.04,,-RA,0.03,VWS V14.01,2013-01-30 06:40:00,
2013-01-30 00:45:00,37.0,35.7,29.36,NNE,19,13.0,16.0,95,0.04,,-RA,0.03,VWS V14.01,2013-01-30 06:45:00,
2013-01-30 00:50:00,37.0,35.7,29.36,NNE,22,5.0,14.0,95,0.04,,FEW120,0.03,VWS V14.01,2013-01-30 06:50:00,
2013-01-30 00:51:00,36.9,35.6,29.37,NNE,23,6.0,14.0,95,0.04,,-RA,0.03,VWS V14.01,2013-01-30 06:51:00,
2013-01-30 00:55:00,36.9,35.6,29.37,NNE,23,14.0,17.0,95,0.04,,FEW120,0.03,VWS V14.01,2013-01-30 06:55:00,
2013-01-30 00:56:00,36.8,35.5,29.37,NNW,331,10.0,17.0,95,0.04,,-RA,0.03,VWS V14.01,2013-01-30 06:56:00,
2013-01-30 01:00:00,36.8,35.5,29.37,North,350,2.0,20.0,95,0.04,,FEW120,0.03,VWS V14.01,2013-01-30 07:00:00,
2013-01-30 01:01:00,36.8,35.5,29.37,NNE,19,7.0,20.0,95,0.03,,-RA,0.03,VWS V14.01,2013-01-30 07:01:00,
2013-01-30 01:05:00,36.7,35.4,29.37,North,350,5.0,14.0,95,0.03,,FEW120,0.03,VWS V14.01,2013-01-30 07:05:00,
2013-01-30 01:06:00,36.7,35.4,29.38,NNE,24,7.0,12.0,95,0.03,,-RA,0.03,VWS V14.01,2013-01-30 07:06:00,
2013-01-30 01:10:00,36.6,35.3,29.38,North,5,7.0,16.0,95,0.03,,FEW120,0.03,VWS V14.01,2013-01-30 07:10:00,
2013-01-30 01:11:00,36.6,35.3,29.38,WNW,300,2.0,16.0,95,0.02,,-RA,0.03,VWS V14.01,2013-01-30 07:11:00,
2013-01-30 01:15:00,36.5,35.2,29.38,North,5,9.0,14.0,95,0.02,,FEW120,0.03,VWS V14.01,2013-01-30 07:15:00,
2013-01-30 01:16:00,36.5,35.2,29.37,NNW,347,13.0,14.0,95,0.01,,-RA,0.03,VWS V14.01,2013-01-30 07:16:00,
2013-01-30 01:20:00,36.4,35.1,29.38,NE,41,4.0,14.0,95,0.02,,FEW120,0.04,VWS V14.01,2013-01-30 07:20:00,
2013-01-30 01:21:00,36.4,35.1,29.38,NNW,345,2.0,13.0,95,0.02,,-RA,0.04,VWS V14.01,2013-01-30 07:21:00,
2013-01-30 01:25:00,36.4,35.1,29.39,NW,324,10.0,12.0,95,0.02,,FEW120,0.04,VWS V14.01,2013-01-30 07:25:00,
2013-01-30 01:26:00,36.4,35.1,29.39,North,9,5.0,12.0,95,0.02,,-RA,0.04,VWS V14.01,2013-01-30 07:26:00,
2013-01-30 01:30:00,36.4,35.1,29.39,NNE,16,7.0,11.0,95,0.02,,FEW120,0.04,VWS V14.01,2013-01-30 07:30:00,
2013-01-30 01:31:00,36.3,35.0,29.39,North,11,6.0,12.0,95,0.02,,-RA,0.05,VWS V14.01,2013-01-30 07:31:00,
2013-01-30 01:35:00,36.2,34.9,29.39,NNE,18,2.0,12.0,95,0.03,,FEW120,0.05,VWS V14.01,2013-01-30 07:35:00,
2013-01-30 01:36:00,36.2,34.9,29.39,NNW,342,4.0,12.0,95,0.03,,-RA,0.06,VWS V14.01,2013-01-30 07:36:00,
2013-01-30 01:40:00,36.1,34.8,29.39,NNW,340,13.0,15.0,95,0.03,,FEW120,0.06,VWS V14.01,2013-01-30 07:40:00,
2013-01-30 01:41:00,36.1,34.8,29.39,North,360,6.0,15.0,95,0.03,,-RA,0.06,VWS V14.01,2013-01-30 07:41:00,
2013-01-30 01:45:00,36.0,34.7,29.39,North,355,11.0,14.0,95,0.04,,FEW120,0.07,VWS V14.01,2013-01-30 07:45:00,
2013-01-30 01:46:00,36.0,34.7,29.39,North,355,7.0,14.0,95,0.04,,-RA,0.07,VWS V14.01,2013-01-30 07:46:00,
2013-01-30 01:50:00,35.9,34.6,29.39,North,360,8.0,15.0,95,0.05,,FEW120,0.08,VWS V14.01,2013-01-30 07:50:00,
2013-01-30 01:51:00,35.8,34.5,29.39,North,355,13.0,15.0,95,0.05,,-RA,0.08,VWS V14.01,2013-01-30 07:51:00,
2013-01-30 01:55:00,35.7,34.4,29.40,North,5,7.0,14.0,95,0.05,,FEW120,0.08,VWS V14.01,2013-01-30 07:55:00,
2013-01-30 01:56:00,35.7,34.4,29.39,North,9,6.0,13.0,95,0.06,,-RA,0.09,VWS V14.01,2013-01-30 07:56:00,
2013-01-30 02:00:00,35.7,34.4,29.39,NNE,32,3.0,11.0,95,0.06,,FEW120,0.09,VWS V14.01,2013-01-30 08:00:00,
2013-01-30 02:01:00,35.6,34.3,29.38,NNE,22,5.0,11.0,95,0.06,,-RA,0.09,VWS V14.01,2013-01-30 08:01:00,
2013-01-30 02:05:00,35.6,34.3,29.38,NNW,345,5.0,11.0,95,0.07,,FEW120,0.10,VWS V14.01,2013-01-30 08:05:00,
2013-01-30 02:07:00,35.5,34.2,29.38,NNE,12,5.0,12.0,95,0.07,,-RA,0.10,VWS V14.01,2013-01-30 08:07:00,
2013-01-30 02:10:00,35.4,34.1,29.38,NNE,13,13.0,15.0,95,0.07,,FEW120,0.10,VWS V14.01,2013-01-30 08:10:00,
2013-01-30 02:12:00,35.4,34.1,29.38,NNE,19,6.0,15.0,95,0.07,,-RA,0.10,VWS V14.01,2013-01-30 08:12:00,
2013-01-30 02:15:00,35.4,34.1,29.38,North,355,12.0,12.0,95,0.07,,FEW120,0.10,VWS V14.01,2013-01-30 08:15:00,
2013-01-30 02:17:00,35.4,34.1,29.38,NNE,12,3.0,12.0,95,0.07,,-RA,0.10,VWS V14.01,2013-01-30 08:17:00,
2013-01-30 02:20:00,35.4,34.1,29.38,NNE,24,4.0,11.0,95,0.07,,FEW120,0.10,VWS V14.01,2013-01-30 08:20:00,
2013-01-30 02:22:00,35.3,34.0,29.37,NNE,27,6.0,9.0,95,0.07,,-RA,0.11,VWS V14.01,2013-01-30 08:22:00,
2013-01-30 02:25:00,35.3,34.0,29.37,North,360,8.0,11.0,95,0.07,,FEW120,0.11,VWS V14.01,2013-01-30 08:25:00,
2013-01-30 02:27:00,35.2,33.9,29.36,NNE,22,12.0,14.0,95,0.07,,-RA,0.11,VWS V14.01,2013-01-30 08:27:00,
2013-01-30 02:30:00,35.1,33.8,29.36,NNE,24,10.0,17.0,95,0.07,,FEW120,0.11,VWS V14.01,2013-01-30 08:30:00,
2013-01-30 02:32:00,35.1,33.8,29.35,NNE,24,4.0,15.0,95,0.07,,-RA,0.11,VWS V14.01,2013-01-30 08:32:00,
2013-01-30 02:35:00,35.1,33.8,29.35,NE,49,7.0,16.0,95,0.07,,FEW120,0.11,VWS V14.01,2013-01-30 08:35:00,
2013-01-30 02:37:00,35.0,33.7,29.34,North,11,6.0,16.0,95,0.06,,-RA,0.11,VWS V14.01,2013-01-30 08:37:00,
2013-01-30 02:40:00,34.9,33.6,29.34,NNE,12,7.0,19.0,95,0.06,,FEW120,0.11,VWS V14.01,2013-01-30 08:40:00,
2013-01-30 02:42:00,34.8,33.5,29.35,NNE,19,13.0,20.0,95,0.05,,-RA,0.11,VWS V14.01,2013-01-30 08:42:00,
2013-01-30 02:45:00,34.7,33.4,29.36,NNE,22,8.0,20.0,95,0.05,,FEW120,0.11,VWS V14.01,2013-01-30 08:45:00,
2013-01-30 02:47:00,34.6,33.3,29.37,NE,40,12.0,17.0,95,0.05,,-RA,0.12,VWS V14.01,2013-01-30 08:47:00,
2013-01-30 02:50:00,34.5,33.2,29.37,NE,43,6.0,18.0,95,0.05,,FEW120,0.12,VWS V14.01,2013-01-30 08:50:00,
2013-01-30 02:52:00,34.4,33.1,29.37,North,350,13.0,18.0,95,0.04,,-RA,0.12,VWS V14.01,2013-01-30 08:52:00,
2013-01-30 02:55:00,34.4,33.1,29.37,NNE,12,15.0,24.0,95,0.04,,FEW120,0.12,VWS V14.01,2013-01-30 08:55:00,
2013-01-30 02:57:00,34.3,33.0,29.37,North,5,10.0,19.0,95,0.04,,-RA,0.12,VWS V14.01,2013-01-30 08:57:00,
2013-01-30 03:00:00,34.3,33.0,29.37,NW,321,2.0,17.0,95,0.04,,,0.12,VWS V14.01,2013-01-30 09:00:00,
2013-01-30 03:02:00,34.3,33.0,29.37,North,360,11.0,17.0,95,0.03,,-RA,0.12,VWS V14.01,2013-01-30 09:02:00,
2013-01-30 03:05:00,34.3,33.0,29.37,North,355,8.0,19.0,95,0.03,,FEW120,0.12,VWS V14.01,2013-01-30 09:05:00,
2013-01-30 03:08:00,34.3,33.0,29.36,NNE,15,12.0,19.0,95,0.02,,-RA,0.12,VWS V14.01,2013-01-30 09:08:00,
2013-01-30 03:10:00,34.3,33.0,29.36,North,355,13.0,18.0,95,0.02,,FEW120,0.12,VWS V14.01,2013-01-30 09:10:00,
2013-01-30 03:13:00,34.3,33.0,29.35,NNE,28,15.0,22.0,95,0.02,,-RA,0.12,VWS V14.01,2013-01-30 09:13:00,
2013-01-30 03:15:00,34.3,33.0,29.35,North,5,13.0,22.0,95,0.02,,FEW120,0.12,VWS V14.01,2013-01-30 09:15:00,
2013-01-30 03:18:00,34.3,32.8,29.35,NE,46,11.0,25.0,94,0.02,,-RA,0.12,VWS V14.01,2013-01-30 09:18:00,
2013-01-30 03:20:00,34.3,32.8,29.35,North,10,5.0,25.0,94,0.02,,FEW120,0.12,VWS V14.01,2013-01-30 09:20:00,
2013-01-30 03:23:00,34.3,32.8,29.36,NNE,15,3.0,18.0,94,0.02,,-RA,0.12,VWS V14.01,2013-01-30 09:23:00,
2013-01-30 03:25:00,34.3,32.8,29.36,NNE,15,7.0,18.0,94,0.02,,FEW120,0.12,VWS V14.01,2013-01-30 09:25:00,
2013-01-30 03:28:00,34.3,32.8,29.37,North,9,8.0,15.0,94,0.01,,-RA,0.12,VWS V14.01,2013-01-30 09:28:00,
2013-01-30 03:30:00,34.3,32.8,29.38,NNE,32,5.0,16.0,94,0.01,,FEW120,0.12,VWS V14.01,2013-01-30 09:30:00,
2013-01-30 03:33:00,34.3,32.8,29.38,North,360,8.0,16.0,94,0.01,,-RA,0.12,VWS V14.01,2013-01-30 09:33:00,
2013-01-30 03:35:00,34.3,32.8,29.38,North,360,6.0,12.0,94,0.01,,FEW120,0.12,VWS V14.01,2013-01-30 09:35:00,
2013-01-30 03:38:00,34.3,32.8,29.38,NNW,339,5.0,11.0,94,0.01,,-RA,0.12,VWS V14.01,2013-01-30 09:38:00,
2013-01-30 03:40:00,34.3,32.8,29.38,NNE,21,13.0,15.0,94,0.01,,FEW120,0.12,VWS V14.01,2013-01-30 09:40:00,
2013-01-30 03:43:00,34.2,32.7,29.38,North,5,8.0,15.0,94,0.01,,-RA,0.12,VWS V14.01,2013-01-30 09:43:00,
2013-01-30 03:45:00,34.2,32.7,29.38,NNW,340,11.0,15.0,94,0.01,,FEW120,0.12,VWS V14.01,2013-01-30 09:45:00,
2013-01-30 03:48:00,34.1,32.6,29.37,NNE,20,9.0,16.0,94,0.01,,-RA,0.12,VWS V14.01,2013-01-30 09:48:00,
2013-01-30 03:50:00,34.1,32.6,29.37,NNW,335,9.0,16.0,94,0.01,,FEW120,0.12,VWS V14.01,2013-01-30 09:50:00,
2013-01-30 03:53:00,34.0,32.5,29.36,North,355,9.0,11.0,94,0.00,,-RA,0.12,VWS V14.01,2013-01-30 09:53:00,
2013-01-30 03:55:00,33.9,32.4,29.36,North,349,9.0,14.0,94,0.00,,FEW120,0.12,VWS V14.01,2013-01-30 09:55:00,
2013-01-30 03:58:00,33.8,32.3,29.36,NNE,24,6.0,15.0,94,0.00,,-RA,0.12,VWS V14.01,2013-01-30 09:58:00,
2013-01-30 04:00:00,33.8,32.3,29.36,NNW,329,8.0,14.0,94,0.00,,FEW120,0.12,VWS V14.01,2013-01-30 10:00:00,
2013-01-30 04:03:00,33.7,32.2,29.36,NE,45,7.0,14.0,94,0.00,,OVC012,0.12,VWS V14.01,2013-01-30 10:03:00,
2013-01-30 04:05:00,33.7,32.2,29.36,North,360,11.0,16.0,94,0.00,,FEW120,0.12,VWS V14.01,2013-01-30 10:05:00,
2013-01-30 04:08:00,33.6,32.1,29.36,NNW,338,4.0,16.0,94,0.00,,OVC012,0.12,VWS V14.01,2013-01-30 10:08:00,
2013-01-30 04:10:00,33.6,32.3,29.36,NNE,24,2.0,16.0,95,0.00,,FEW120,0.12,VWS V14.01,2013-01-30 10:10:00,
2013-01-30 04:14:00,33.6,32.1,29.38,NNE,21,6.0,16.0,94,0.00,,OVC012,0.12,VWS V14.01,2013-01-30 10:14:00,
2013-01-30 04:15:00,33.6,32.3,29.38,North,349,6.0,16.0,95,0.00,,FEW120,0.12,VWS V14.01,2013-01-30 10:15:00,
2013-01-30 04:19:00,33.6,32.3,29.38,NW,325,9.0,12.0,95,0.01,,OVC012,0.13,VWS V14.01,2013-01-30 10:19:00,
2013-01-30 04:20:00,33.6,32.3,29.38,NNE,22,10.0,12.0,95,0.01,,FEW120,0.13,VWS V14.01,2013-01-30 10:20:00,
2013-01-30 04:24:00,33.6,32.3,29.39,NNW,342,9.0,15.0,95,0.01,,OVC012,0.13,VWS V14.01,2013-01-30 10:24:00,
2013-01-30 04:25:00,33.5,32.2,29.39,NNW,338,11.0,15.0,95,0.01,,FEW120,0.13,VWS V14.01,2013-01-30 10:25:00,
2013-01-30 04:29:00,33.5,32.2,29.38,North,355,11.0,12.0,95,0.01,,OVC012,0.13,VWS V14.01,2013-01-30 10:29:00,
2013-01-30 04:30:00,33.5,32.2,29.38,NNE,17,2.0,12.0,95,0.01,,FEW120,0.13,VWS V14.01,2013-01-30 10:30:00,
2013-01-30 04:34:00,33.5,32.2,29.38,North,355,0.0,12.0,95,0.01,,OVC012,0.13,VWS V14.01,2013-01-30 10:34:00,
2013-01-30 04:35:00,33.4,32.1,29.38,NNE,15,11.0,14.0,95,0.01,,FEW120,0.13,VWS V14.01,2013-01-30 10:35:00,
2013-01-30 04:39:00,33.4,32.1,29.37,NNE,20,11.0,15.0,95,0.01,,OVC012,0.13,VWS V14.01,2013-01-30 10:39:00,
2013-01-30 04:40:00,33.5,32.2,29.37,North,5,7.0,15.0,95,0.01,,FEW120,0.13,VWS V14.01,2013-01-30 10:40:00,
2013-01-30 04:44:00,33.4,32.1,29.36,North,355,6.0,13.0,95,0.01,,OVC012,0.13,VWS V14.01,2013-01-30 10:44:00,
2013-01-30 04:45:00,33.4,32.1,29.36,NNW,329,8.0,13.0,95,0.01,,FEW120,0.13,VWS V14.01,2013-01-30 10:45:00,
2013-01-30 04:49:00,33.4,32.1,29.38,NW,325,11.0,15.0,95,0.01,,OVC012,0.13,VWS V14.01,2013-01-30 10:49:00,
2013-01-30 04:50:00,33.4,32.1,29.38,NNW,343,7.0,15.0,95,0.02,,FEW120,0.14,VWS V14.01,2013-01-30 10:50:00,
2013-01-30 04:54:00,33.4,32.1,29.38,North,360,4.0,13.0,95,0.02,,OVC012,0.14,VWS V14.01,2013-01-30 10:54:00,
2013-01-30 04:55:00,33.4,32.1,29.38,North,355,5.0,13.0,95,0.02,,FEW120,0.14,VWS V14.01,2013-01-30 10:55:00,
2013-01-30 04:59:00,33.4,32.1,29.37,North,5,9.0,13.0,95,0.02,,OVC012,0.14,VWS V14.01,2013-01-30 10:59:00,
2013-01-30 05:00:00,33.4,32.1,29.36,NE,47,8.0,13.0,95,0.02,,FEW120,0.14,VWS V14.01,2013-01-30 11:00:00,
2013-01-30 05:04:00,33.3,32.0,29.33,North,360,5.0,13.0,95,0.02,,-RA,0.14,VWS V14.01,2013-01-30 11:04:00,
2013-01-30 05:05:00,33.3,32.0,29.33,North,360,5.0,13.0,95,0.02,,FEW120,0.14,VWS V14.01,2013-01-30 11:05:00,
2013-01-30 05:09:00,33.2,31.9,29.34,NW,319,9.0,17.0,95,0.02,,-RA,0.14,VWS V14.01,2013-01-30 11:09:00,
2013-01-30 05:10:00,33.2,31.9,29.34,NW,319,9.0,17.0,95,0.02,,FEW120,0.14,VWS V14.01,2013-01-30 11:10:00,
2013-01-30 05:14:00,33.2,31.9,29.34,North,355,10.0,12.0,95,0.02,,-RA,0.14,VWS V14.01,2013-01-30 11:14:00,
2013-01-30 05:15:00,33.2,31.9,29.34,North,355,10.0,12.0,95,0.02,,FEW120,0.14,VWS V14.01,2013-01-30 11:15:00,
2013-01-30 05:19:00,33.2,31.9,29.32,North,5,10.0,11.0,95,0.02,,-RA,0.14,VWS V14.01,2013-01-30 11:19:00,
2013-01-30 05:20:00,33.2,31.9,29.32,North,5,10.0,11.0,95,0.02,,FEW120,0.14,VWS V14.01,2013-01-30 11:20:00,
2013-01-30 05:24:00,33.2,31.9,29.31,NE,44,9.0,12.0,95,0.01,,-RA,0.14,VWS V14.01,2013-01-30 11:24:00,
2013-01-30 05:25:00,33.2,31.9,29.31,NE,44,9.0,12.0,95,0.01,,FEW120,0.14,VWS V14.01,2013-01-30 11:25:00,
2013-01-30 05:29:00,33.1,31.8,29.30,NNE,29,12.0,16.0,95,0.01,,-RA,0.14,VWS V14.01,2013-01-30 11:29:00,
2013-01-30 05:30:00,33.1,31.8,29.30,NNE,29,12.0,16.0,95,0.01,,FEW120,0.14,VWS V14.01,2013-01-30 11:30:00,
2013-01-30 05:34:00,33.1,31.8,29.31,North,360,4.0,19.0,95,0.01,,-RA,0.14,VWS V14.01,2013-01-30 11:34:00,
2013-01-30 05:35:00,33.1,31.8,29.31,North,360,4.0,19.0,95,0.01,,FEW120,0.14,VWS V14.01,2013-01-30 11:35:00,
2013-01-30 05:39:00,33.2,31.9,29.31,NE,35,14.0,18.0,95,0.01,,-RA,0.14,VWS V14.01,2013-01-30 11:39:00,
2013-01-30 05:40:00,33.2,31.9,29.31,NE,35,14.0,18.0,95,0.01,,FEW120,0.14,VWS V14.01,2013-01-30 11:40:00,
2013-01-30 05:44:00,33.2,31.9,29.31,NNE,28,5.0,13.0,95,0.01,,-RA,0.14,VWS V14.01,2013-01-30 11:44:00,
2013-01-30 05:45:00,33.2,31.9,29.31,NNE,28,5.0,13.0,95,0.01,,FEW120,0.14,VWS V14.01,2013-01-30 11:45:00,
2013-01-30 05:50:00,33.2,31.9,29.31,North,360,10.0,19.0,95,0.00,,-RA,0.14,VWS V14.01,2013-01-30 11:50:00,
2013-01-30 05:55:00,33.2,31.9,29.32,NNE,33,9.0,17.0,95,0.00,,-RA,0.14,VWS V14.01,2013-01-30 11:55:00,
2013-01-30 06:00:00,33.2,31.9,29.33,North,360,6.0,13.0,95,0.00,,-RA,0.14,VWS V14.01,2013-01-30 12:00:00,
2013-01-30 06:05:00,33.2,31.9,29.33,NNE,33,8.0,16.0,95,0.00,,OVC005,0.14,VWS V14.01,2013-01-30 12:05:00,
2013-01-30 06:10:00,33.2,31.9,29.33,NNE,13,6.0,14.0,95,0.00,,OVC005,0.14,VWS V14.01,2013-01-30 12:10:00,
2013-01-30 06:15:00,33.2,31.9,29.33,NE,50,11.0,15.0,95,0.00,,OVC005,0.14,VWS V14.01,2013-01-30 12:15:00,
2013-01-30 06:20:00,33.3,32.0,29.33,NNE,27,6.0,14.0,95,0.00,,OVC005,0.14,VWS V14.01,2013-01-30 12:20:00,
2013-01-30 06:25:00,33.3,32.0,29.33,NNW,342,8.0,12.0,95,0.00,,OVC005,0.14,VWS V14.01,2013-01-30 12:25:00,
2013-01-30 06:30:00,33.3,32.0,29.32,North,355,9.0,15.0,95,0.00,,OVC005,0.14,VWS V14.01,2013-01-30 12:30:00,
2013-01-30 06:35:00,33.3,32.0,29.31,NNW,333,9.0,16.0,95,0.00,,,0.14,VWS V14.01,2013-01-30 12:35:00,
2013-01-30 06:36:00,33.3,32.0,29.32,NNE,27,7.0,16.0,95,0.00,,OVC005,0.14,VWS V14.01,2013-01-30 12:36:00,
2013-01-30 06:40:00,33.3,32.0,29.32,North,5,5.0,11.0,95,0.00,,,0.14,VWS V14.01,2013-01-30 12:40:00,
2013-01-30 06:41:00,33.3,32.0,29.32,North,360,9.0,11.0,95,0.00,,OVC005,0.14,VWS V14.01,2013-01-30 12:41:00,
2013-01-30 06:45:00,33.3,32.0,29.31,North,360,7.0,14.0,95,0.00,,FEW120,0.14,VWS V14.01,2013-01-30 12:45:00,
2013-01-30 06:46:00,33.3,32.0,29.32,North,5,9.0,16.0,95,0.00,,OVC005,0.14,VWS V14.01,2013-01-30 12:46:00,
2013-01-30 06:50:00,33.3,32.0,29.32,NNE,20,12.0,14.0,95,0.00,,FEW120,0.14,VWS V14.01,2013-01-30 12:50:00,
2013-01-30 06:51:00,33.3,32.0,29.32,North,355,2.0,14.0,95,0.00,,OVC005,0.14,VWS V14.01,2013-01-30 12:51:00,
2013-01-30 06:55:00,33.3,32.0,29.31,NE,35,8.0,17.0,95,0.00,,FEW120,0.14,VWS V14.01,2013-01-30 12:55:00,
2013-01-30 06:56:00,33.3,32.0,29.31,NE,42,9.0,17.0,95,0.00,,OVC005,0.14,VWS V14.01,2013-01-30 12:56:00,
2013-01-30 07:00:00,33.4,32.1,29.30,North,5,10.0,15.0,95,0.00,,FEW120,0.14,VWS V14.01,2013-01-30 13:00:00,
2013-01-30 07:01:00,33.3,32.0,29.31,NNW,345,8.0,15.0,95,0.00,,OVC010,0.14,VWS V14.01,2013-01-30 13:01:00,
2013-01-30 07:05:00,33.4,32.1,29.31,NNE,18,14.0,19.0,95,0.01,,FEW120,0.15,VWS V14.01,2013-01-30 13:05:00,
2013-01-30 07:06:00,33.3,32.0,29.31,NNW,336,3.0,19.0,95,0.01,,OVC010,0.15,VWS V14.01,2013-01-30 13:06:00,
2013-01-30 07:10:00,33.4,32.1,29.32,North,10,5.0,18.0,95,0.01,,FEW120,0.15,VWS V14.01,2013-01-30 13:10:00,
2013-01-30 07:11:00,33.3,32.0,29.31,North,11,7.0,18.0,95,0.01,,OVC010,0.15,VWS V14.01,2013-01-30 13:11:00,
2013-01-30 07:15:00,33.3,32.0,29.31,North,360,12.0,13.0,95,0.01,,FEW120,0.15,VWS V14.01,2013-01-30 13:15:00,
2013-01-30 07:16:00,33.3,32.0,29.31,North,10,13.0,18.0,95,0.01,,OVC010,0.15,VWS V14.01,2013-01-30 13:16:00,
2013-01-30 07:20:00,33.2,31.9,29.29,NW,324,6.0,18.0,95,0.01,,FEW120,0.15,VWS V14.01,2013-01-30 13:20:00,
2013-01-30 07:21:00,33.3,32.0,29.30,North,355,9.0,16.0,95,0.01,,OVC010,0.15,VWS V14.01,2013-01-30 13:21:00,
2013-01-30 07:25:00,33.2,31.9,29.30,NNE,33,9.0,16.0,95,0.02,,FEW120,0.16,VWS V14.01,2013-01-30 13:25:00,
2013-01-30 07:26:00,33.3,32.0,29.29,North,5,12.0,15.0,95,0.02,,OVC010,0.16,VWS V14.01,2013-01-30 13:26:00,
2013-01-30 07:30:00,33.2,31.9,29.29,NNE,18,13.0,19.0,95,0.02,,FEW120,0.16,VWS V14.01,2013-01-30 13:30:00,
2013-01-30 07:31:00,33.2,32.2,29.29,North,350,4.0,19.0,96,0.02,,OVC010,0.16,VWS V14.01,2013-01-30 13:31:00,
2013-01-30 07:35:00,33.2,32.2,29.29,NNW,348,11.0,20.0,96,0.02,,FEW120,0.16,VWS V14.01,2013-01-30 13:35:00,
2013-01-30 07:36:00,33.2,32.2,29.29,NE,46,15.0,20.0,96,0.02,,OVC010,0.16,VWS V14.01,2013-01-30 13:36:00,
2013-01-30 07:40:00,33.2,32.2,29.29,NE,40,15.0,21.0,96,0.02,,FEW120,0.16,VWS V14.01,2013-01-30 13:40:00,
2013-01-30 07:42:00,33.1,32.1,29.28,NE,53,7.0,22.0,96,0.02,,OVC010,0.16,VWS V14.01,2013-01-30 13:42:00,
2013-01-30 07:45:00,33.1,32.1,29.29,ENE,57,10.0,22.0,96,0.02,,FEW120,0.16,VWS V14.01,2013-01-30 13:45:00,
2013-01-30 07:47:00,33.1,32.1,29.29,NNE,12,13.0,20.0,96,0.02,,OVC010,0.16,VWS V14.01,2013-01-30 13:47:00,
2013-01-30 07:50:00,33.1,32.1,29.29,North,5,16.0,22.0,96,0.02,,FEW120,0.16,VWS V14.01,2013-01-30 13:50:00,
2013-01-30 07:52:00,33.1,32.1,29.29,North,5,15.0,22.0,96,0.02,,OVC010,0.16,VWS V14.01,2013-01-30 13:52:00,
2013-01-30 07:55:00,33.1,32.1,29.29,NNE,22,5.0,19.0,96,0.02,,FEW120,0.16,VWS V14.01,2013-01-30 13:55:00,
2013-01-30 07:57:00,33.1,32.1,29.30,NNE,21,11.0,19.0,96,0.02,,OVC010,0.16,VWS V14.01,2013-01-30 13:57:00,
2013-01-30 08:00:00,33.0,32.0,29.30,North,360,6.0,20.0,96,0.02,,FEW120,0.16,VWS V14.01,2013-01-30 14:00:00,
2013-01-30 08:02:00,33.0,32.0,29.30,NNE,26,14.0,23.0,96,0.02,,-RA,0.16,VWS V14.01,2013-01-30 14:02:00,
2013-01-30 08:05:00,32.9,31.9,29.30,North,5,15.0,23.0,96,0.02,,FEW120,0.16,VWS V14.01,2013-01-30 14:05:00,
2013-01-30 08:07:00,32.8,31.8,29.29,NE,35,15.0,19.0,96,0.01,,-RA,0.16,VWS V14.01,2013-01-30 14:07:00,
2013-01-30 08:10:00,32.7,31.7,29.29,NNE,22,7.0,25.0,96,0.01,,FEW120,0.16,VWS V14.01,2013-01-30 14:10:00,
2013-01-30 08:12:00,32.6,31.6,29.29,NE,40,8.0,25.0,96,0.01,,-RA,0.16,VWS V14.01,2013-01-30 14:12:00,
2013-01-30 08:15:00,32.6,31.6,29.29,NNE,24,13.0,24.0,96,0.01,,FEW120,0.16,VWS V14.01,2013-01-30 14:15:00,
2013-01-30 08:17:00,32.6,31.6,29.30,NNE,15,16.0,21.0,96,0.01,,-RA,0.16,VWS V14.01,2013-01-30 14:17:00,
2013-01-30 08:20:00,32.5,31.5,29.30,NNE,17,16.0,21.0,96,0.01,,FEW120,0.16,VWS V14.01,2013-01-30 14:20:00,
2013-01-30 08:22:00,32.4,31.4,29.30,NNE,16,11.0,21.0,96,0.01,,-RA,0.16,VWS V14.01,2013-01-30 14:22:00,
2013-01-30 08:25:00,32.4,31.4,29.31,NNE,30,8.0,21.0,96,0.01,,FEW120,0.16,VWS V14.01,2013-01-30 14:25:00,
2013-01-30 08:27:00,32.4,31.4,29.30,ENE,57,9.0,22.0,96,0.00,,-RA,0.16,VWS V14.01,2013-01-30 14:27:00,
2013-01-30 08:30:00,32.3,31.3,29.30,NNE,21,10.0,22.0,96,0.00,,FEW120,0.16,VWS V14.01,2013-01-30 14:30:00,
2013-01-30 08:32:00,32.3,31.3,29.30,NNE,17,9.0,19.0,96,0.00,,-RA,0.16,VWS V14.01,2013-01-30 14:32:00,
2013-01-30 08:35:00,32.2,31.2,29.30,ENE,66,8.0,22.0,96,0.00,,FEW120,0.16,VWS V14.01,2013-01-30 14:35:00,
2013-01-30 08:37:00,32.1,31.1,29.29,NNE,16,13.0,18.0,96,0.00,,-RA,0.16,VWS V14.01,2013-01-30 14:37:00,
2013-01-30 08:40:00,32.0,31.0,29.30,NNE,24,13.0,18.0,96,0.00,,FEW120,0.16,VWS V14.01,2013-01-30 14:40:00,
2013-01-30 08:42:00,32.0,31.0,29.29,NNE,15,10.0,18.0,96,0.00,,-RA,0.16,VWS V14.01,2013-01-30 14:42:00,
2013-01-30 08:45:00,31.9,30.9,29.29,NNE,19,12.0,18.0,96,0.00,,FEW120,0.16,VWS V14.01,2013-01-30 14:45:00,
2013-01-30 08:47:00,31.9,30.6,29.29,North,5,10.0,19.0,95,0.00,,-RA,0.16,VWS V14.01,2013-01-30 14:47:00,
2013-01-30 08:50:00,31.9,30.9,29.28,NNE,14,13.0,22.0,96,0.00,,FEW120,0.16,VWS V14.01,2013-01-30 14:50:00,
2013-01-30 08:53:00,31.8,30.8,29.28,NNW,346,12.0,22.0,96,0.00,,-RA,0.16,VWS V14.01,2013-01-30 14:53:00,
2013-01-30 08:55:00,31.8,30.5,29.28,North,11,11.0,17.0,95,0.00,,FEW120,0.16,VWS V14.01,2013-01-30 14:55:00,
2013-01-30 08:58:00,31.7,30.4,29.28,NNW,333,8.0,19.0,95,0.00,,-RA,0.16,VWS V14.01,2013-01-30 14:58:00,
2013-01-30 09:00:00,31.7,30.4,29.29,NE,47,11.0,19.0,95,0.00,,FEW120,0.16,VWS V14.01,2013-01-30 15:00:00,
2013-01-30 09:03:00,31.7,30.7,29.28,NE,42,7.0,18.0,96,0.00,,-RA,0.16,VWS V14.01,2013-01-30 15:03:00,
2013-01-30 09:05:00,31.7,30.7,29.28,NNW,339,13.0,19.0,96,0.00,,FEW120,0.16,VWS V14.01,2013-01-30 15:05:00,
2013-01-30 09:08:00,31.6,30.6,29.29,NNW,348,12.0,20.0,96,0.00,,-RA,0.16,VWS V14.01,2013-01-30 15:08:00,
2013-01-30 09:10:00,31.6,30.6,29.29,North,360,12.0,17.0,96,0.00,,FEW120,0.16,VWS V14.01,2013-01-30 15:10:00,
2013-01-30 09:13:00,31.6,30.6,29.28,NE,34,8.0,22.0,96,0.00,,-RA,0.16,VWS V14.01,2013-01-30 15:13:00,
2013-01-30 09:15:00,31.6,30.6,29.28,NNW,338,9.0,22.0,96,0.00,,FEW120,0.16,VWS V14.01,2013-01-30 15:15:00,
2013-01-30 09:18:00,31.6,30.6,29.27,NNE,15,10.0,15.0,96,0.00,,-RA,0.16,VWS V14.01,2013-01-30 15:18:00,
2013-01-30 09:20:00,31.5,30.5,29.27,NE,34,10.0,14.0,96,0.00,,FEW120,0.16,VWS V14.01,2013-01-30 15:20:00,
2013-01-30 09:23:00,31.5,30.5,29.27,North,360,2.0,20.0,96,0.00,,-RA,0.16,VWS V14.01,2013-01-30 15:23:00,
2013-01-30 09:25:00,31.5,30.5,29.27,NNW,338,9.0,20.0,96,0.00,,FEW120,0.16,VWS V14.01,2013-01-30 15:25:00,
2013-01-30 09:28:00,31.4,30.4,29.27,NNW,332,4.0,17.0,96,0.00,,-RA,0.16,VWS V14.01,2013-01-30 15:28:00,
2013-01-30 09:30:00,31.4,30.4,29.27,NNE,24,12.0,17.0,96,0.00,,FEW120,0.16,VWS V14.01,2013-01-30 15:30:00,
2013-01-30 09:33:00,31.3,30.3,29.27,North,360,6.0,12.0,96,0.00,,-RA,0.16,VWS V14.01,2013-01-30 15:33:00,
2013-01-30 09:35:00,31.3,30.0,29.27,NNW,328,2.0,11.0,95,0.00,,FEW120,0.16,VWS V14.01,2013-01-30 15:35:00,
2013-01-30 09:38:00,31.2,29.9,29.27,NNE,17,7.0,14.0,95,0.00,,-RA,0.16,VWS V14.01,2013-01-30 15:38:00,
2013-01-30 09:40:00,31.2,29.9,29.27,NNE,22,12.0,19.0,95,0.00,,FEW120,0.16,VWS V14.01,2013-01-30 15:40:00,
2013-01-30 09:43:00,31.2,30.2,29.26,NNE,19,21.0,21.0,96,0.00,,-RA,0.16,VWS V14.01,2013-01-30 15:43:00,
2013-01-30 09:45:00,31.1,30.1,29.26,NNE,28,7.0,21.0,96,0.00,,FEW120,0.16,VWS V14.01,2013-01-30 15:45:00,
2013-01-30 09:49:00,31.1,30.1,29.25,North,360,12.0,17.0,96,0.00,,-RA,0.16,VWS V14.01,2013-01-30 15:49:00,
2013-01-30 09:50:00,31.0,30.0,29.25,NNE,32,14.0,18.0,96,0.00,,FEW120,0.16,VWS V14.01,2013-01-30 15:50:00,
2013-01-30 09:54:00,30.9,29.9,29.25,North,5,10.0,21.0,96,0.00,,-RA,0.16,VWS V14.01,2013-01-30 15:54:00,
2013-01-30 09:55:00,30.9,29.9,29.25,NE,55,7.0,21.0,96,0.00,,FEW120,0.16,VWS V14.01,2013-01-30 15:55:00,
2013-01-30 09:59:00,30.9,29.9,29.24,NNE,20,8.0,18.0,96,0.00,,-RA,0.16,VWS V14.01,2013-01-30 15:59:00,
2013-01-30 10:00:00,31.0,30.0,29.24,North,360,13.0,18.0,96,0.00,,FEW120,0.16,VWS V14.01,2013-01-30 16:00:00,
2013-01-30 10:04:00,31.0,30.0,29.25,NNE,23,15.0,21.0,96,0.00,,-RA,0.16,VWS V14.01,2013-01-30 16:04:00,
2013-01-30 10:05:00,31.0,30.0,29.25,NNE,27,7.0,21.0,96,0.00,,FEW120,0.16,VWS V14.01,2013-01-30 16:05:00,
2013-01-30 10:09:00,31.0,30.0,29.25,NW,325,5.0,21.0,96,0.00,,-RA,0.16,VWS V14.01,2013-01-30 16:09:00,
2013-01-30 10:10:00,31.0,30.0,29.25,NNE,14,13.0,21.0,96,0.00,,FEW120,0.16,VWS V14.01,2013-01-30 16:10:00,
2013-01-30 10:14:00,31.0,30.0,29.25,NNE,14,6.0,16.0,96,0.00,,-RA,0.16,VWS V14.01,2013-01-30 16:14:00,
2013-01-30 10:15:00,31.0,30.0,29.25,North,355,6.0,16.0,96,0.00,,FEW120,0.16,VWS V14.01,2013-01-30 16:15:00,
2013-01-30 10:19:00,31.0,30.0,29.25,North,360,10.0,19.0,96,0.00,,-RA,0.16,VWS V14.01,2013-01-30 16:19:00,
2013-01-30 10:20:00,30.9,29.9,29.25,North,11,11.0,19.0,96,0.00,,FEW120,0.16,VWS V14.01,2013-01-30 16:20:00,
2013-01-30 10:24:00,30.9,29.9,29.25,NE,43,4.0,19.0,96,0.00,,-RA,0.16,VWS V14.01,2013-01-30 16:24:00,
2013-01-30 10:25:00,30.9,29.9,29.25,North,9,13.0,19.0,96,0.00,,FEW120,0.16,VWS V14.01,2013-01-30 16:25:00,
2013-01-30 10:29:00,30.8,29.8,29.24,North,5,5.0,18.0,96,0.00,,-RA,0.16,VWS V14.01,2013-01-30 16:29:00,
2013-01-30 10:30:00,30.8,29.8,29.24,NNE,26,10.0,18.0,96,0.00,,FEW120,0.16,VWS V14.01,2013-01-30 16:30:00,
2013-01-30 10:34:00,30.7,29.7,29.23,North,5,7.0,17.0,96,0.00,,-RA,0.16,VWS V14.01,2013-01-30 16:34:00,
2013-01-30 10:35:00,30.8,29.8,29.23,North,355,11.0,17.0,96,0.00,,FEW120,0.16,VWS V14.01,2013-01-30 16:35:00,
2013-01-30 10:39:00,30.6,29.6,29.23,NNE,23,11.0,21.0,96,0.00,,-RA,0.16,VWS V14.01,2013-01-30 16:39:00,
2013-01-30 10:40:00,30.6,29.6,29.23,NNE,23,11.0,21.0,96,0.00,,FEW120,0.16,VWS V14.01,2013-01-30 16:40:00,
2013-01-30 10:44:00,30.5,29.5,29.23,North,350,14.0,23.0,96,0.00,,-RA,0.16,VWS V14.01,2013-01-30 16:44:00,
2013-01-30 10:45:00,30.5,29.5,29.23,North,350,14.0,23.0,96,0.00,,FEW120,0.16,VWS V14.01,2013-01-30 16:45:00,
2013-01-30 10:49:00,30.4,29.4,29.23,NNW,336,8.0,20.0,96,0.00,,-RA,0.16,VWS V14.01,2013-01-30 16:49:00,
2013-01-30 10:50:00,30.4,29.4,29.23,NNW,336,8.0,20.0,96,0.00,,FEW120,0.16,VWS V14.01,2013-01-30 16:50:00,
2013-01-30 10:54:00,30.2,29.2,29.23,NE,42,9.0,20.0,96,0.00,,-RA,0.16,VWS V14.01,2013-01-30 16:54:00,
2013-01-30 10:55:00,30.2,29.2,29.23,NE,42,9.0,20.0,96,0.00,,FEW120,0.16,VWS V14.01,2013-01-30 16:55:00,
2013-01-30 10:59:00,30.0,29.0,29.23,NNE,23,5.0,19.0,96,0.00,,-RA,0.16,VWS V14.01,2013-01-30 16:59:00,
2013-01-30 11:00:00,30.0,29.0,29.23,NNE,23,5.0,19.0,96,0.00,,FEW120,0.16,VWS V14.01,2013-01-30 17:00:00,
2013-01-30 11:05:00,29.8,28.8,29.22,North,9,5.0,17.0,96,0.00,,,0.16,VWS V14.01,2013-01-30 17:05:00,
2013-01-30 11:10:00,29.7,28.7,29.22,NNE,28,3.0,17.0,96,0.00,,,0.16,VWS V14.01,2013-01-30 17:10:00,
2013-01-30 11:15:00,29.5,28.5,29.22,NNE,27,2.0,18.0,96,0.00,,,0.16,VWS V14.01,2013-01-30 17:15:00,
2013-01-30 11:20:00,29.3,28.3,29.23,North,355,11.0,19.0,96,0.00,,,0.16,VWS V14.01,2013-01-30 17:20:00,
2013-01-30 11:25:00,29.2,28.2,29.23,NNW,333,13.0,14.0,96,0.00,,,0.16,VWS V14.01,2013-01-30 17:25:00,
2013-01-30 11:30:00,29.2,28.2,29.24,North,5,10.0,13.0,96,0.00,,,0.16,VWS V14.01,2013-01-30 17:30:00,
2013-01-30 11:35:00,29.0,28.0,29.22,NW,307,9.0,16.0,96,0.00,,,0.16,VWS V14.01,2013-01-30 17:35:00,
2013-01-30 11:40:00,29.2,28.2,29.23,NNW,327,5.0,12.0,96,0.00,,,0.16,VWS V14.01,2013-01-30 17:40:00,
2013-01-30 11:45:00,28.8,27.8,29.22,NW,321,18.0,20.0,96,0.00,,,0.16,VWS V14.01,2013-01-30 17:45:00,
2013-01-30 11:50:00,28.7,27.7,29.21,North,5,10.0,18.0,96,0.00,,,0.16,VWS V14.01,2013-01-30 17:50:00,
2013-01-30 11:55:00,28.7,27.7,29.22,NW,325,4.0,18.0,96,0.00,,FEW120,0.16,VWS V14.01,2013-01-30 17:55:00,
2013-01-30 11:56:00,28.7,27.7,29.23,NNW,343,10.0,16.0,96,0.00,,,0.16,VWS V14.01,2013-01-30 17:56:00,
2013-01-30 12:00:00,28.7,27.7,29.23,NW,315,14.0,14.0,96,0.00,,FEW120,0.16,VWS V14.01,2013-01-30 18:00:00,
2013-01-30 12:01:00,28.7,27.7,29.23,NW,309,8.0,14.0,96,0.00,,,0.16,VWS V14.01,2013-01-30 18:01:00,
2013-01-30 12:05:00,28.8,27.8,29.23,North,355,4.0,12.0,96,0.00,,FEW120,0.16,VWS V14.01,2013-01-30 18:05:00,
2013-01-30 12:06:00,28.9,27.9,29.23,NW,323,11.0,12.0,96,0.00,,,0.16,VWS V14.01,2013-01-30 18:06:00,
2013-01-30 12:10:00,28.9,27.9,29.24,North,355,9.0,16.0,96,0.00,,FEW120,0.16,VWS V14.01,2013-01-30 18:10:00,
2013-01-30 12:11:00,28.7,27.7,29.24,NW,313,11.0,16.0,96,0.00,,,0.16,VWS V14.01,2013-01-30 18:11:00,
2013-01-30 12:15:00,28.6,27.6,29.24,North,355,4.0,17.0,96,0.00,,FEW120,0.16,VWS V14.01,2013-01-30 18:15:00,
2013-01-30 12:16:00,28.5,27.5,29.24,NW,320,7.0,18.0,96,0.00,,,0.16,VWS V14.01,2013-01-30 18:16:00,
2013-01-30 12:20:00,28.5,27.5,29.24,NW,311,9.0,17.0,96,0.00,,FEW120,0.16,VWS V14.01,2013-01-30 18:20:00,
2013-01-30 12:21:00,28.5,27.5,29.24,NW,321,12.0,17.0,96,0.00,,,0.16,VWS V14.01,2013-01-30 18:21:00,
2013-01-30 12:25:00,28.7,27.7,29.23,NNW,331,3.0,15.0,96,0.00,,FEW120,0.16,VWS V14.01,2013-01-30 18:25:00,
2013-01-30 12:26:00,28.7,27.7,29.23,NW,317,9.0,11.0,96,0.00,,,0.16,VWS V14.01,2013-01-30 18:26:00,
2013-01-30 12:30:00,28.7,27.7,29.23,NW,323,7.0,14.0,96,0.00,,FEW120,0.16,VWS V14.01,2013-01-30 18:30:00,
2013-01-30 12:31:00,28.7,27.7,29.23,NNW,338,8.0,14.0,96,0.00,,,0.16,VWS V14.01,2013-01-30 18:31:00,
2013-01-30 12:35:00,28.7,27.7,29.23,NW,304,7.0,14.0,96,0.00,,FEW120,0.16,VWS V14.01,2013-01-30 18:35:00,
2013-01-30 12:36:00,28.7,27.7,29.24,NNW,329,8.0,13.0,96,0.00,,,0.16,VWS V14.01,2013-01-30 18:36:00,
2013-01-30 12:40:00,28.8,27.8,29.24,NW,321,4.0,13.0,96,0.00,,FEW120,0.16,VWS V14.01,2013-01-30 18:40:00,
2013-01-30 12:41:00,29.0,28.0,29.23,NNE,21,8.0,12.0,96,0.00,,,0.16,VWS V14.01,2013-01-30 18:41:00,
2013-01-30 12:45:00,28.8,27.8,29.23,NW,317,7.0,16.0,96,0.00,,FEW120,0.16,VWS V14.01,2013-01-30 18:45:00,
2013-01-30 12:46:00,28.6,27.6,29.22,NW,319,13.0,18.0,96,0.00,,,0.16,VWS V14.01,2013-01-30 18:46:00,
2013-01-30 12:50:00,28.3,27.3,29.22,NW,321,14.0,22.0,96,0.00,,FEW120,0.16,VWS V14.01,2013-01-30 18:50:00,
2013-01-30 12:52:00,28.3,27.3,29.22,NNW,334,9.0,22.0,96,0.00,,,0.16,VWS V14.01,2013-01-30 18:52:00,
2013-01-30 12:55:00,28.4,27.4,29.21,North,355,4.0,15.0,96,0.00,,FEW120,0.16,VWS V14.01,2013-01-30 18:55:00,
2013-01-30 12:57:00,28.5,27.5,29.21,NNE,18,4.0,14.0,96,0.00,,,0.16,VWS V14.01,2013-01-30 18:57:00,
2013-01-30 13:00:00,28.5,27.5,29.21,NW,317,9.0,13.0,96,0.00,,FEW120,0.16,VWS V14.01,2013-01-30 19:00:00,
2013-01-30 13:02:00,28.6,27.6,29.21,NNW,335,3.0,14.0,96,0.00,,,0.16,VWS V14.01,2013-01-30 19:02:00,
2013-01-30 13:05:00,28.7,27.7,29.21,NW,319,13.0,16.0,96,0.00,,FEW120,0.16,VWS V14.01,2013-01-30 19:05:00,
2013-01-30 13:07:00,28.8,27.8,29.20,NNW,337,8.0,15.0,96,0.00,,,0.16,VWS V14.01,2013-01-30 19:07:00,
2013-01-30 13:10:00,28.9,27.9,29.20,North,5,5.0,13.0,96,0.00,,FEW120,0.16,VWS V14.01,2013-01-30 19:10:00,
2013-01-30 13:12:00,28.8,27.8,29.19,NW,325,9.0,17.0,96,0.00,,,0.16,VWS V14.01,2013-01-30 19:12:00,
2013-01-30 13:15:00,28.7,27.7,29.20,WNW,296,10.0,18.0,96,0.00,,FEW120,0.16,VWS V14.01,2013-01-30 19:15:00,
2013-01-30 13:17:00,28.5,27.5,29.20,NW,317,4.0,20.0,96,0.00,,,0.16,VWS V14.01,2013-01-30 19:17:00,
2013-01-30 13:20:00,28.7,27.7,29.20,NW,307,11.0,20.0,96,0.00,,FEW120,0.16,VWS V14.01,2013-01-30 19:20:00,
2013-01-30 13:22:00,28.7,27.7,29.20,NW,323,12.0,21.0,96,0.00,,,0.16,VWS V14.01,2013-01-30 19:22:00,
2013-01-30 13:25:00,28.8,27.5,29.20,NNW,343,22.0,22.0,95,0.00,,FEW120,0.16,VWS V14.01,2013-01-30 19:25:00,
2013-01-30 13:27:00,28.8,27.5,29.20,North,355,9.0,22.0,95,0.00,,,0.16,VWS V14.01,2013-01-30 19:27:00,
2013-01-30 13:30:00,28.8,27.5,29.20,NNW,344,11.0,19.0,95,0.00,,FEW120,0.16,VWS V14.01,2013-01-30 19:30:00,
2013-01-30 13:32:00,28.7,27.5,29.20,NNW,345,20.0,20.0,95,0.00,,,0.16,VWS V14.01,2013-01-30 19:32:00,
2013-01-30 13:35:00,28.6,27.4,29.20,NNW,329,12.0,24.0,95,0.00,,FEW120,0.16,VWS V14.01,2013-01-30 19:35:00,
2013-01-30 13:37:00,28.7,27.5,29.21,NNW,337,7.0,18.0,95,0.00,,,0.16,VWS V14.01,2013-01-30 19:37:00,
2013-01-30 13:40:00,28.8,27.5,29.21,NW,317,6.0,18.0,95,0.00,,FEW120,0.16,VWS V14.01,2013-01-30 19:40:00,
2013-01-30 13:42:00,28.9,27.6,29.21,NW,325,9.0,15.0,95,0.00,,,0.16,VWS V14.01,2013-01-30 19:42:00,
2013-01-30 13:45:00,28.9,27.6,29.21,NW,304,10.0,18.0,95,0.00,,FEW120,0.16,VWS V14.01,2013-01-30 19:45:00,
2013-01-30 13:47:00,28.9,27.6,29.21,NW,312,11.0,19.0,95,0.00,,,0.16,VWS V14.01,2013-01-30 19:47:00,
2013-01-30 13:50:00,28.8,27.5,29.21,NNW,348,12.0,20.0,95,0.00,,FEW120,0.16,VWS V14.01,2013-01-30 19:50:00,
2013-01-30 13:53:00,28.9,27.4,29.20,NW,321,9.0,20.0,94,0.00,,,0.16,VWS V14.01,2013-01-30 19:53:00,
2013-01-30 13:55:00,29.0,27.5,29.21,WNW,296,9.0,17.0,94,0.00,,FEW120,0.16,VWS V14.01,2013-01-30 19:55:00,
2013-01-30 13:58:00,29.1,27.9,29.21,WNW,300,5.0,15.0,95,0.00,,,0.16,VWS V14.01,2013-01-30 19:58:00,
2013-01-30 14:00:00,29.0,27.8,29.21,NNW,328,7.0,17.0,95,0.00,,FEW120,0.16,VWS V14.01,2013-01-30 20:00:00,
2013-01-30 14:03:00,28.9,27.4,29.21,NW,313,10.0,19.0,94,0.01,,,0.17,VWS V14.01,2013-01-30 20:03:00,
2013-01-30 14:05:00,28.8,27.3,29.21,NW,312,8.0,19.0,94,0.01,,FEW120,0.17,VWS V14.01,2013-01-30 20:05:00,
2013-01-30 14:08:00,28.7,27.2,29.21,WNW,283,11.0,21.0,94,0.01,,,0.17,VWS V14.01,2013-01-30 20:08:00,
2013-01-30 14:10:00,28.7,27.2,29.21,NW,319,12.0,16.0,94,0.01,,FEW120,0.17,VWS V14.01,2013-01-30 20:10:00,
2013-01-30 14:13:00,28.6,27.1,29.21,WNW,291,17.0,17.0,94,0.01,,,0.17,VWS V14.01,2013-01-30 20:13:00,
2013-01-30 14:15:00,28.5,27.0,29.21,WNW,295,12.0,18.0,94,0.01,,FEW120,0.17,VWS V14.01,2013-01-30 20:15:00,
2013-01-30 14:18:00,28.4,26.9,29.21,NW,316,12.0,17.0,94,0.01,,,0.17,VWS V14.01,2013-01-30 20:18:00,
2013-01-30 14:20:00,28.4,26.9,29.21,NNW,348,7.0,17.0,94,0.01,,FEW120,0.17,VWS V14.01,2013-01-30 20:20:00,
2013-01-30 14:23:00,28.4,26.9,29.21,West,271,13.0,19.0,94,0.01,,,0.17,VWS V14.01,2013-01-30 20:23:00,
2013-01-30 14:25:00,28.3,26.8,29.21,NNW,333,13.0,19.0,94,0.01,,FEW120,0.17,VWS V14.01,2013-01-30 20:25:00,
2013-01-30 14:28:00,28.3,26.5,29.21,NW,313,13.0,18.0,93,0.01,,,0.17,VWS V14.01,2013-01-30 20:28:00,
2013-01-30 14:30:00,28.3,26.5,29.21,NW,322,7.0,19.0,93,0.01,,FEW120,0.17,VWS V14.01,2013-01-30 20:30:00,
2013-01-30 14:33:00,28.3,26.5,29.21,North,360,12.0,25.0,93,0.01,,,0.17,VWS V14.01,2013-01-30 20:33:00,
2013-01-30 14:35:00,28.3,26.5,29.21,WNW,298,16.0,25.0,93,0.01,,FEW120,0.17,VWS V14.01,2013-01-30 20:35:00,
2013-01-30 14:38:00,28.3,26.3,29.22,WNW,302,6.0,21.0,92,0.01,,,0.17,VWS V14.01,2013-01-30 20:38:00,
2013-01-30 14:40:00,28.3,26.5,29.22,WNW,294,10.0,21.0,93,0.01,,FEW120,0.17,VWS V14.01,2013-01-30 20:40:00,
2013-01-30 14:43:00,28.3,26.3,29.22,North,355,9.0,20.0,92,0.01,,,0.17,VWS V14.01,2013-01-30 20:43:00,
2013-01-30 14:45:00,28.4,26.4,29.22,NNW,333,8.0,18.0,92,0.01,,FEW120,0.17,VWS V14.01,2013-01-30 20:45:00,
2013-01-30 14:48:00,28.3,26.3,29.22,NW,320,10.0,26.0,92,0.01,,,0.17,VWS V14.01,2013-01-30 20:48:00,
2013-01-30 14:50:00,28.2,26.2,29.22,NW,314,16.0,26.0,92,0.01,,FEW120,0.17,VWS V14.01,2013-01-30 20:50:00,
2013-01-30 14:53:00,28.2,25.9,29.23,NNW,340,8.0,22.0,91,0.01,,,0.17,VWS V14.01,2013-01-30 20:53:00,
2013-01-30 14:55:00,28.2,25.9,29.23,NW,319,5.0,22.0,91,0.01,,FEW120,0.17,VWS V14.01,2013-01-30 20:55:00,
2013-01-30 14:58:00,28.2,25.9,29.23,WNW,293,8.0,20.0,91,0.01,,,0.17,VWS V14.01,2013-01-30 20:58:00,
2013-01-30 15:00:00,28.2,25.9,29.23,NNW,334,17.0,20.0,91,0.01,,FEW120,0.17,VWS V14.01,2013-01-30 21:00:00,
2013-01-30 15:03:00,28.3,26.0,29.22,NW,305,19.0,19.0,91,0.01,,OVC029,0.17,VWS V14.01,2013-01-30 21:03:00,
2013-01-30 15:05:00,28.2,25.9,29.22,NNW,331,16.0,22.0,91,0.01,,,0.17,VWS V14.01,2013-01-30 21:05:00,
2013-01-30 15:09:00,28.2,25.6,29.23,NW,317,12.0,19.0,90,0.00,,OVC029,0.17,VWS V14.01,2013-01-30 21:09:00,
2013-01-30 15:10:00,28.2,25.6,29.23,NNW,344,13.0,19.0,90,0.00,,FEW120,0.17,VWS V14.01,2013-01-30 21:10:00,
2013-01-30 15:14:00,28.2,25.6,29.23,NW,321,11.0,19.0,90,0.00,,OVC029,0.17,VWS V14.01,2013-01-30 21:14:00,
2013-01-30 15:15:00,28.1,25.5,29.23,NNW,338,16.0,20.0,90,0.00,,FEW120,0.17,VWS V14.01,2013-01-30 21:15:00,
2013-01-30 15:19:00,28.1,25.5,29.23,NNW,331,15.0,22.0,90,0.00,,OVC029,0.17,VWS V14.01,2013-01-30 21:19:00,
2013-01-30 15:20:00,28.1,25.5,29.23,NNW,336,10.0,22.0,90,0.00,,FEW120,0.17,VWS V14.01,2013-01-30 21:20:00,
2013-01-30 15:24:00,28.1,25.3,29.23,NW,319,9.0,20.0,89,0.00,,OVC029,0.17,VWS V14.01,2013-01-30 21:24:00,
2013-01-30 15:25:00,28.1,25.3,29.23,NNW,335,10.0,21.0,89,0.00,,FEW120,0.17,VWS V14.01,2013-01-30 21:25:00,
2013-01-30 15:29:00,28.1,25.3,29.24,NW,319,9.0,25.0,89,0.00,,OVC029,0.17,VWS V14.01,2013-01-30 21:29:00,
2013-01-30 15:30:00,28.1,25.3,29.24,WNW,295,13.0,25.0,89,0.00,,FEW120,0.17,VWS V14.01,2013-01-30 21:30:00,
2013-01-30 15:34:00,28.1,25.3,29.24,WNW,284,13.0,18.0,89,0.00,,OVC029,0.17,VWS V14.01,2013-01-30 21:34:00,
2013-01-30 15:35:00,28.1,25.3,29.24,NNW,336,9.0,18.0,89,0.00,,FEW120,0.17,VWS V14.01,2013-01-30 21:35:00,
2013-01-30 15:39:00,28.1,25.3,29.24,West,275,12.0,14.0,89,0.00,,OVC029,0.17,VWS V14.01,2013-01-30 21:39:00,
2013-01-30 15:40:00,28.1,25.3,29.24,NNW,334,12.0,14.0,89,0.00,,FEW120,0.17,VWS V14.01,2013-01-30 21:40:00,
2013-01-30 15:44:00,28.1,25.3,29.25,NW,326,9.0,19.0,89,0.00,,OVC029,0.17,VWS V14.01,2013-01-30 21:44:00,
2013-01-30 15:45:00,28.0,25.2,29.25,WNW,302,11.0,19.0,89,0.00,,FEW120,0.17,VWS V14.01,2013-01-30 21:45:00,
2013-01-30 15:49:00,27.9,25.1,29.25,WNW,303,13.0,21.0,89,0.00,,OVC029,0.17,VWS V14.01,2013-01-30 21:49:00,
2013-01-30 15:50:00,27.9,25.1,29.25,NW,326,9.0,21.0,89,0.00,,FEW120,0.17,VWS V14.01,2013-01-30 21:50:00,
2013-01-30 15:54:00,27.7,24.9,29.25,NW,321,13.0,23.0,89,0.00,,OVC029,0.17,VWS V14.01,2013-01-30 21:54:00,
2013-01-30 15:55:00,27.7,24.9,29.25,NW,304,13.0,23.0,89,0.00,,FEW120,0.17,VWS V14.01,2013-01-30 21:55:00,
2013-01-30 15:59:00,27.6,24.8,29.25,NNW,327,14.0,20.0,89,0.00,,OVC029,0.17,VWS V14.01,2013-01-30 21:59:00,
2013-01-30 16:00:00,27.6,24.8,29.25,NNW,327,14.0,20.0,89,0.00,,FEW120,0.17,VWS V14.01,2013-01-30 22:00:00,
2013-01-30 16:04:00,27.6,24.8,29.25,NW,308,10.0,16.0,89,0.00,,,0.17,VWS V14.01,2013-01-30 22:04:00,
2013-01-30 16:05:00,27.6,24.8,29.25,NW,308,10.0,16.0,89,0.00,,BKN070,0.17,VWS V14.01,2013-01-30 22:05:00,
2013-01-30 16:10:00,27.6,24.8,29.25,NW,325,14.0,16.0,89,0.00,,,0.17,VWS V14.01,2013-01-30 22:10:00,
2013-01-30 16:15:00,27.5,24.4,29.25,WNW,301,16.0,26.0,88,0.00,,,0.17,VWS V14.01,2013-01-30 22:15:00,
2013-01-30 16:20:00,27.5,24.7,29.25,WNW,297,11.0,20.0,89,0.00,,,0.17,VWS V14.01,2013-01-30 22:20:00,
2013-01-30 16:25:00,27.5,24.7,29.25,West,259,8.0,21.0,89,0.00,,,0.17,VWS V14.01,2013-01-30 22:25:00,
2013-01-30 16:30:00,27.5,24.7,29.26,WNW,296,8.0,19.0,89,0.00,,,0.17,VWS V14.01,2013-01-30 22:30:00,
2013-01-30 16:35:00,27.5,24.7,29.26,NW,305,17.0,23.0,89,0.00,,,0.17,VWS V14.01,2013-01-30 22:35:00,
2013-01-30 16:40:00,27.4,24.6,29.27,WSW,257,9.0,21.0,89,0.00,,,0.17,VWS V14.01,2013-01-30 22:40:00,
2013-01-30 16:45:00,27.4,24.6,29.27,NW,305,9.0,15.0,89,0.00,,,0.17,VWS V14.01,2013-01-30 22:45:00,
2013-01-30 16:50:00,27.3,24.5,29.28,WNW,300,9.0,17.0,89,0.00,,,0.17,VWS V14.01,2013-01-30 22:50:00,
2013-01-30 16:55:00,27.2,24.4,29.29,WNW,296,12.0,21.0,89,0.00,,,0.17,VWS V14.01,2013-01-30 22:55:00,
2013-01-30 17:00:00,27.2,24.1,29.29,WNW,298,12.0,18.0,88,0.00,,,0.17,VWS V14.01,2013-01-30 23:00:00,
2013-01-30 17:05:00,27.1,24.0,29.30,WNW,300,5.0,17.0,88,0.00,,,0.17,VWS V14.01,2013-01-30 23:05:00,
2013-01-30 17:10:00,26.9,23.6,29.30,NW,305,8.0,24.0,87,0.00,,,0.17,VWS V14.01,2013-01-30 23:10:00,
2013-01-30 17:15:00,26.8,23.5,29.31,NW,310,9.0,18.0,87,0.00,,,0.17,VWS V14.01,2013-01-30 23:15:00,
2013-01-30 17:20:00,26.8,23.5,29.31,West,275,9.0,19.0,87,0.00,,BKN070,0.17,VWS V14.01,2013-01-30 23:20:00,
2013-01-30 17:21:00,26.8,23.5,29.31,NW,323,9.0,18.0,87,0.00,,,0.17,VWS V14.01,2013-01-30 23:21:00,
2013-01-30 17:25:00,26.8,23.5,29.31,NW,309,15.0,21.0,87,0.00,,BKN070,0.17,VWS V14.01,2013-01-30 23:25:00,
2013-01-30 17:26:00,26.7,23.4,29.31,WNW,293,8.0,21.0,87,0.00,,,0.17,VWS V14.01,2013-01-30 23:26:00,
2013-01-30 17:30:00,26.7,23.6,29.31,West,273,6.0,17.0,88,0.00,,BKN070,0.17,VWS V14.01,2013-01-30 23:30:00,
2013-01-30 17:31:00,26.7,23.6,29.32,WNW,296,8.0,18.0,88,0.00,,,0.17,VWS V14.01,2013-01-30 23:31:00,
2013-01-30 17:35:00,26.7,23.4,29.32,WNW,296,8.0,18.0,87,0.00,,BKN070,0.17,VWS V14.01,2013-01-30 23:35:00,
2013-01-30 17:36:00,26.7,23.4,29.32,NNW,342,5.0,17.0,87,0.00,,,0.17,VWS V14.01,2013-01-30 23:36:00,
2013-01-30 17:40:00,26.6,23.3,29.32,NW,324,16.0,21.0,87,0.00,,BKN070,0.17,VWS V14.01,2013-01-30 23:40:00,
2013-01-30 17:41:00,26.6,23.3,29.32,WNW,288,18.0,21.0,87,0.00,,,0.17,VWS V14.01,2013-01-30 23:41:00,
2013-01-30 17:45:00,26.6,23.3,29.32,NW,316,15.0,19.0,87,0.00,,BKN070,0.17,VWS V14.01,2013-01-30 23:45:00,
2013-01-30 17:46:00,26.5,23.2,29.32,NW,309,12.0,19.0,87,0.00,,,0.17,VWS V14.01,2013-01-30 23:46:00,
2013-01-30 17:50:00,26.5,23.2,29.32,WNW,303,12.0,20.0,87,0.00,,BKN070,0.17,VWS V14.01,2013-01-30 23:50:00,
2013-01-30 17:51:00,26.4,23.1,29.32,WNW,298,11.0,22.0,87,0.00,,,0.17,VWS V14.01,2013-01-30 23:51:00,
2013-01-30 17:55:00,26.4,23.1,29.33,NE,44,6.0,22.0,87,0.00,,BKN070,0.17,VWS V14.01,2013-01-30 23:55:00,
2013-01-30 17:56:00,26.5,23.4,29.33,NW,307,5.0,18.0,88,0.00,,,0.17,VWS V14.01,2013-01-30 23:56:00,
2013-01-30 18:00:00,26.5,23.4,29.33,NW,306,8.0,16.0,88,0.00,,BKN070,0.17,VWS V14.01,2013-01-31 00:00:00,
2013-01-30 18:01:00,26.5,23.4,29.33,NW,311,9.0,16.0,88,0.00,,,0.17,VWS V14.01,2013-01-31 00:01:00,
2013-01-30 18:05:00,26.4,23.3,29.33,WNW,283,12.0,19.0,88,0.00,,BKN070,0.17,VWS V14.01,2013-01-31 00:05:00,
2013-01-30 18:06:00,26.3,23.2,29.33,NW,304,13.0,20.0,88,0.00,,,0.17,VWS V14.01,2013-01-31 00:06:00,
2013-01-30 18:10:00,26.3,23.2,29.33,NW,313,6.0,16.0,88,0.00,,BKN070,0.17,VWS V14.01,2013-01-31 00:10:00,
2013-01-30 18:11:00,26.3,23.2,29.33,West,277,8.0,12.0,88,0.00,,,0.17,VWS V14.01,2013-01-31 00:11:00,
2013-01-30 18:15:00,26.3,23.2,29.33,WSW,257,7.0,12.0,88,0.00,,BKN070,0.17,VWS V14.01,2013-01-31 00:15:00,
2013-01-30 18:16:00,26.3,23.2,29.33,WNW,284,3.0,12.0,88,0.00,,,0.17,VWS V14.01,2013-01-31 00:16:00,
2013-01-30 18:20:00,26.3,23.2,29.33,West,281,3.0,16.0,88,0.00,,BKN070,0.17,VWS V14.01,2013-01-31 00:20:00,
2013-01-30 18:21:00,26.3,23.2,29.33,WNW,297,13.0,16.0,88,0.00,,,0.17,VWS V14.01,2013-01-31 00:21:00,
2013-01-30 18:25:00,26.3,23.2,29.33,NW,316,13.0,17.0,88,0.00,,BKN070,0.17,VWS V14.01,2013-01-31 00:25:00,
2013-01-30 18:26:00,26.3,23.2,29.34,WNW,296,10.0,17.0,88,0.00,,,0.17,VWS V14.01,2013-01-31 00:26:00,
2013-01-30 18:30:00,26.3,23.2,29.34,WNW,294,10.0,23.0,88,0.00,,BKN070,0.17,VWS V14.01,2013-01-31 00:30:00,
2013-01-30 18:32:00,26.3,23.0,29.34,NNW,327,10.0,25.0,87,0.00,,,0.17,VWS V14.01,2013-01-31 00:32:00,
2013-01-30 18:35:00,26.3,23.0,29.34,WNW,301,17.0,22.0,87,0.00,,BKN070,0.17,VWS V14.01,2013-01-31 00:35:00,
2013-01-30 18:37:00,26.2,22.9,29.34,WNW,294,18.0,24.0,87,0.00,,,0.17,VWS V14.01,2013-01-31 00:37:00,
2013-01-30 18:40:00,26.2,22.9,29.34,WNW,286,12.0,20.0,87,0.00,,BKN070,0.17,VWS V14.01,2013-01-31 00:40:00,
2013-01-30 18:42:00,26.2,22.9,29.34,West,264,13.0,22.0,87,0.00,,,0.17,VWS V14.01,2013-01-31 00:42:00,
2013-01-30 18:45:00,26.2,22.6,29.34,NW,309,12.0,22.0,86,0.00,,BKN070,0.17,VWS V14.01,2013-01-31 00:45:00,
2013-01-30 18:47:00,26.1,22.5,29.34,WNW,298,17.0,22.0,86,0.00,,,0.17,VWS V14.01,2013-01-31 00:47:00,
2013-01-30 18:50:00,26.1,22.5,29.34,NW,310,17.0,22.0,86,0.00,,BKN070,0.17,VWS V14.01,2013-01-31 00:50:00,
2013-01-30 18:52:00,26.0,22.7,29.34,WNW,302,9.0,18.0,87,0.00,,,0.17,VWS V14.01,2013-01-31 00:52:00,
2013-01-30 18:55:00,26.0,22.7,29.34,WNW,300,13.0,18.0,87,0.00,,BKN070,0.17,VWS V14.01,2013-01-31 00:55:00,
2013-01-30 18:57:00,26.0,22.7,29.34,WNW,282,12.0,16.0,87,0.00,,,0.17,VWS V14.01,2013-01-31 00:57:00,
2013-01-30 19:00:00,26.1,22.8,29.34,NW,313,6.0,15.0,87,0.00,,BKN070,0.17,VWS V14.01,2013-01-31 01:00:00,
2013-01-30 19:02:00,26.0,22.7,29.34,NW,306,8.0,15.0,87,0.00,,,0.17,VWS V14.01,2013-01-31 01:02:00,
2013-01-30 19:05:00,26.0,22.7,29.34,WNW,294,9.0,19.0,87,0.00,,BKN070,0.17,VWS V14.01,2013-01-31 01:05:00,
2013-01-30 19:07:00,25.9,22.6,29.34,WNW,297,17.0,21.0,87,0.00,,,0.17,VWS V14.01,2013-01-31 01:07:00,
2013-01-30 19:10:00,25.9,22.6,29.35,NW,309,9.0,22.0,87,0.00,,BKN070,0.17,VWS V14.01,2013-01-31 01:10:00,
2013-01-30 19:12:00,25.8,22.5,29.34,WNW,284,11.0,19.0,87,0.00,,,0.17,VWS V14.01,2013-01-31 01:12:00,
2013-01-30 19:15:00,25.8,22.5,29.35,WSW,255,14.0,19.0,87,0.00,,BKN070,0.17,VWS V14.01,2013-01-31 01:15:00,
2013-01-30 19:17:00,25.8,22.5,29.35,WNW,298,8.0,17.0,87,0.00,,,0.17,VWS V14.01,2013-01-31 01:17:00,
2013-01-30 19:20:00,25.7,22.6,29.35,WNW,298,16.0,20.0,88,0.00,,BKN070,0.17,VWS V14.01,2013-01-31 01:20:00,
2013-01-30 19:22:00,25.7,22.6,29.35,West,281,12.0,20.0,88,0.00,,,0.17,VWS V14.01,2013-01-31 01:22:00,
2013-01-30 19:25:00,25.6,22.5,29.35,WNW,291,8.0,20.0,88,0.00,,BKN070,0.17,VWS V14.01,2013-01-31 01:25:00,
2013-01-30 19:27:00,25.5,22.5,29.35,West,268,17.0,18.0,88,0.00,,,0.17,VWS V14.01,2013-01-31 01:27:00,
2013-01-30 19:30:00,25.5,22.2,29.35,WNW,284,7.0,23.0,87,0.00,,BKN070,0.17,VWS V14.01,2013-01-31 01:30:00,
2013-01-30 19:32:00,25.4,22.1,29.35,WNW,296,8.0,18.0,87,0.00,,OVC070,0.17,VWS V14.01,2013-01-31 01:32:00,
2013-01-30 19:35:00,25.4,22.4,29.36,WNW,284,5.0,18.0,88,0.00,,BKN070,0.17,VWS V14.01,2013-01-31 01:35:00,
2013-01-30 19:38:00,25.0,21.7,29.36,WNW,289,12.0,19.0,87,0.00,,OVC070,0.17,VWS V14.01,2013-01-31 01:38:00,
2013-01-30 19:40:00,24.8,21.8,29.36,WNW,296,10.0,19.0,88,0.00,,BKN070,0.17,VWS V14.01,2013-01-31 01:40:00,
2013-01-30 19:43:00,24.4,21.1,29.36,West,263,8.0,21.0,87,0.00,,OVC070,0.17,VWS V14.01,2013-01-31 01:43:00,
2013-01-30 19:45:00,24.2,21.2,29.36,NW,305,13.0,21.0,88,0.00,,BKN070,0.17,VWS V14.01,2013-01-31 01:45:00,
2013-01-30 19:48:00,24.0,21.0,29.37,WNW,292,11.0,24.0,88,0.00,,OVC070,0.17,VWS V14.01,2013-01-31 01:48:00,
2013-01-30 19:50:00,23.9,20.9,29.37,WNW,298,21.0,27.0,88,0.00,,BKN070,0.17,VWS V14.01,2013-01-31 01:50:00,
2013-01-30 19:53:00,23.8,20.8,29.37,West,281,12.0,27.0,88,0.00,,OVC070,0.17,VWS V14.01,2013-01-31 01:53:00,
2013-01-30 19:55:00,23.8,20.8,29.37,WNW,299,9.0,17.0,88,0.00,,BKN070,0.17,VWS V14.01,2013-01-31 01:55:00,
2013-01-30 19:58:00,23.6,20.6,29.37,NW,306,14.0,18.0,88,0.00,,OVC070,0.17,VWS V14.01,2013-01-31 01:58:00,
2013-01-30 20:00:00,23.6,20.6,29.37,West,281,15.0,18.0,88,0.00,,BKN070,0.17,VWS V14.01,2013-01-31 02:00:00,
2013-01-30 20:03:00,23.5,20.2,29.37,WNW,293,9.0,21.0,87,0.00,,,0.17,VWS V14.01,2013-01-31 02:03:00,
2013-01-30 20:05:00,23.5,20.2,29.37,West,277,8.0,19.0,87,0.00,,BKN070,0.17,VWS V14.01,2013-01-31 02:05:00,
2013-01-30 20:08:00,23.5,20.2,29.38,WNW,283,18.0,21.0,87,0.00,,,0.17,VWS V14.01,2013-01-31 02:08:00,
2013-01-30 20:10:00,23.5,20.2,29.37,WNW,303,15.0,21.0,87,0.00,,BKN070,0.17,VWS V14.01,2013-01-31 02:10:00,
2013-01-30 20:13:00,23.4,19.6,29.38,WNW,290,6.0,18.0,85,0.00,,,0.17,VWS V14.01,2013-01-31 02:13:00,
2013-01-30 20:15:00,23.4,19.6,29.38,WNW,294,7.0,21.0,85,0.00,,BKN070,0.17,VWS V14.01,2013-01-31 02:15:00,
2013-01-30 20:18:00,23.2,19.1,29.38,NW,310,9.0,20.0,84,0.00,,,0.17,VWS V14.01,2013-01-31 02:18:00,
2013-01-30 20:20:00,23.2,19.1,29.38,WNW,282,7.0,20.0,84,0.00,,,0.17,VWS V14.01,2013-01-31 02:20:00,
2013-01-30 20:23:00,23.0,18.6,29.39,NW,309,9.0,16.0,83,0.00,,,0.17,VWS V14.01,2013-01-31 02:23:00,
2013-01-30 20:25:00,23.0,18.6,29.39,WNW,302,9.0,16.0,83,0.00,,BKN070,0.17,VWS V14.01,2013-01-31 02:25:00,
2013-01-30 20:28:00,22.8,18.4,29.39,WNW,287,13.0,23.0,83,0.00,,,0.17,VWS V14.01,2013-01-31 02:28:00,
2013-01-30 20:30:00,22.7,18.3,29.39,NW,306,8.0,23.0,83,0.00,,,0.17,VWS V14.01,2013-01-31 02:30:00,
2013-01-30 20:34:00,22.6,18.2,29.39,NW,304,9.0,17.0,83,0.00,,OVC024,0.17,VWS V14.01,2013-01-31 02:34:00,
2013-01-30 20:35:00,22.6,18.2,29.39,NW,311,10.0,18.0,83,0.00,,,0.17,VWS V14.01,2013-01-31 02:35:00,
2013-01-30 20:39:00,22.5,18.4,29.40,NNW,329,13.0,16.0,84,0.00,,OVC024,0.17,VWS V14.01,2013-01-31 02:39:00,
2013-01-30 20:40:00,22.5,18.4,29.40,West,264,6.0,16.0,84,0.00,,,0.17,VWS V14.01,2013-01-31 02:40:00,
2013-01-30 20:44:00,22.4,18.3,29.40,WNW,294,14.0,19.0,84,0.00,,OVC024,0.17,VWS V14.01,2013-01-31 02:44:00,
2013-01-30 20:45:00,22.4,18.3,29.40,NNW,344,7.0,19.0,84,0.00,,BKN070,0.17,VWS V14.01,2013-01-31 02:45:00,
2013-01-30 20:49:00,22.3,18.8,29.40,NW,311,7.0,17.0,86,0.00,,OVC024,0.17,VWS V14.01,2013-01-31 02:49:00,
2013-01-30 20:50:00,22.3,18.8,29.40,WNW,295,6.0,17.0,86,0.00,,,0.17,VWS V14.01,2013-01-31 02:50:00,
2013-01-30 20:54:00,22.3,19.0,29.41,West,262,5.0,13.0,87,0.00,,OVC024,0.17,VWS V14.01,2013-01-31 02:54:00,
2013-01-30 20:55:00,22.4,19.1,29.41,West,265,16.0,16.0,87,0.00,,,0.17,VWS V14.01,2013-01-31 02:55:00,
2013-01-30 20:59:00,22.1,19.1,29.41,West,265,8.0,19.0,88,0.00,,OVC024,0.17,VWS V14.01,2013-01-31 02:59:00,
2013-01-30 21:00:00,22.1,19.1,29.41,West,261,10.0,19.0,88,0.00,,BKN070,0.17,VWS V14.01,2013-01-31 03:00:00,
2013-01-30 21:04:00,21.8,18.8,29.41,WNW,282,11.0,16.0,88,0.00,,OVC022,0.17,VWS V14.01,2013-01-31 03:04:00,
2013-01-30 21:05:00,21.8,18.8,29.41,WNW,291,12.0,16.0,88,0.00,,BKN070,0.17,VWS V14.01,2013-01-31 03:05:00,
2013-01-30 21:09:00,21.6,18.6,29.41,WNW,296,18.0,25.0,88,0.00,,OVC022,0.17,VWS V14.01,2013-01-31 03:09:00,
2013-01-30 21:10:00,21.5,18.5,29.41,WNW,302,16.0,25.0,88,0.00,,BKN070,0.17,VWS V14.01,2013-01-31 03:10:00,
2013-01-30 21:14:00,21.2,18.5,29.41,West,276,8.0,23.0,89,0.00,,OVC022,0.17,VWS V14.01,2013-01-31 03:14:00,
2013-01-30 21:15:00,21.2,18.5,29.41,WSW,257,13.0,23.0,89,0.00,,BKN070,0.17,VWS V14.01,2013-01-31 03:15:00,
2013-01-30 21:19:00,21.1,18.6,29.42,NW,309,16.0,19.0,90,0.00,,OVC022,0.17,VWS V14.01,2013-01-31 03:19:00,
2013-01-30 21:20:00,21.1,18.6,29.42,WNW,296,13.0,19.0,90,0.00,,BKN070,0.17,VWS V14.01,2013-01-31 03:20:00,
2013-01-30 21:24:00,21.2,19.0,29.42,West,260,9.0,18.0,91,0.00,,OVC022,0.17,VWS V14.01,2013-01-31 03:24:00,
2013-01-30 21:25:00,21.2,19.0,29.42,West,260,9.0,18.0,91,0.00,,BKN070,0.17,VWS V14.01,2013-01-31 03:25:00,
2013-01-30 21:29:00,21.1,18.6,29.43,West,265,10.0,17.0,90,0.00,,OVC022,0.17,VWS V14.01,2013-01-31 03:29:00,
2013-01-30 21:30:00,21.1,18.6,29.43,West,265,10.0,17.0,90,0.00,,BKN070,0.17,VWS V14.01,2013-01-31 03:30:00,
2013-01-30 21:34:00,20.8,18.3,29.43,WNW,292,15.0,22.0,90,0.00,,OVC022,0.17,VWS V14.01,2013-01-31 03:34:00,
2013-01-30 21:35:00,20.8,18.3,29.43,WNW,292,15.0,22.0,90,0.00,,BKN070,0.17,VWS V14.01,2013-01-31 03:35:00,
2013-01-30 21:39:00,20.7,18.2,29.43,West,273,8.0,18.0,90,0.00,,OVC022,0.17,VWS V14.01,2013-01-31 03:39:00,
2013-01-30 21:40:00,20.7,18.2,29.43,West,273,8.0,18.0,90,0.00,,BKN070,0.17,VWS V14.01,2013-01-31 03:40:00,
2013-01-30 21:44:00,20.6,17.9,29.44,WNW,290,10.0,19.0,89,0.00,,OVC022,0.17,VWS V14.01,2013-01-31 03:44:00,
2013-01-30 21:45:00,20.6,17.9,29.44,WNW,290,10.0,19.0,89,0.00,,BKN070,0.17,VWS V14.01,2013-01-31 03:45:00,
2013-01-30 21:49:00,20.4,17.7,29.44,West,265,12.0,16.0,89,0.00,,OVC022,0.17,VWS V14.01,2013-01-31 03:49:00,
2013-01-30 21:50:00,20.4,17.7,29.44,West,265,12.0,16.0,89,0.00,,BKN070,0.17,VWS V14.01,2013-01-31 03:50:00,
2013-01-30 21:55:00,20.2,17.5,29.44,WNW,303,13.0,20.0,89,0.00,,OVC022,0.17,VWS V14.01,2013-01-31 03:55:00,
2013-01-30 22:00:00,20.1,17.1,29.44,WSW,252,11.0,18.0,88,0.00,,OVC022,0.17,VWS V14.01,2013-01-31 04:00:00,
2013-01-30 22:05:00,19.9,16.7,29.44,West,274,16.0,22.0,87,0.00,,BKN020,0.17,VWS V14.01,2013-01-31 04:05:00,
2013-01-30 22:10:00,19.8,16.6,29.45,West,279,13.0,20.0,87,0.00,,BKN020,0.17,VWS V14.01,2013-01-31 04:10:00,
2013-01-30 22:15:00,19.8,16.3,29.45,WNW,300,19.0,19.0,86,0.00,,BKN020,0.17,VWS V14.01,2013-01-31 04:15:00,
2013-01-30 22:20:00,19.8,16.3,29.45,SW,235,14.0,18.0,86,0.00,,BKN020,0.17,VWS V14.01,2013-01-31 04:20:00,
2013-01-30 22:25:00,19.7,15.9,29.45,NW,323,9.0,22.0,85,0.00,,BKN020,0.17,VWS V14.01,2013-01-31 04:25:00,
2013-01-30 22:30:00,19.5,15.7,29.46,West,267,9.0,22.0,85,0.00,,BKN020,0.17,VWS V14.01,2013-01-31 04:30:00,
2013-01-30 22:35:00,19.2,15.2,29.46,West,281,8.0,20.0,84,0.00,,BKN020,0.17,VWS V14.01,2013-01-31 04:35:00,
2013-01-30 22:40:00,18.9,14.9,29.47,West,269,11.0,22.0,84,0.00,,BKN020,0.17,VWS V14.01,2013-01-31 04:40:00,
2013-01-30 22:45:00,18.8,14.8,29.47,West,271,15.0,17.0,84,0.00,,BKN020,0.17,VWS V14.01,2013-01-31 04:45:00,
2013-01-30 22:50:00,18.7,16.8,29.47,WNW,293,10.0,21.0,92,0.00,,BKN020,0.17,VWS V14.01,2013-01-31 04:50:00,
2013-01-30 22:55:00,18.6,14.6,29.47,West,264,7.0,17.0,84,0.00,,,0.17,VWS V14.01,2013-01-31 04:55:00,
2013-01-30 22:56:00,18.5,14.5,29.47,West,264,16.0,19.0,84,0.00,,BKN020,0.17,VWS V14.01,2013-01-31 04:56:00,
2013-01-30 23:00:00,18.4,14.6,29.48,West,278,11.0,22.0,85,0.00,,BKN020,0.17,VWS V14.01,2013-01-31 05:00:00,
2013-01-30 23:01:00,18.3,14.6,29.48,West,267,14.0,22.0,85,0.00,,,0.17,VWS V14.01,2013-01-31 05:01:00,
2013-01-30 23:04:00,18.2,14.2,29.48,West,260,13.0,20.0,84,0.00,,,0.17,VWS V14.01,2013-01-31 05:04:00,
2013-01-30 23:05:00,18.2,14.2,29.48,West,276,11.0,20.0,84,0.00,,BKN070,0.17,VWS V14.01,2013-01-31 05:05:00,
2013-01-30 23:09:00,18.0,14.0,29.49,West,280,7.0,20.0,84,0.00,,,0.17,VWS V14.01,2013-01-31 05:09:00,
2013-01-30 23:10:00,18.0,14.0,29.49,West,275,7.0,20.0,84,0.00,,BKN070,0.17,VWS V14.01,2013-01-31 05:10:00,
2013-01-30 23:11:00,18.0,14.0,29.49,West,267,11.0,20.0,84,0.00,,,0.17,VWS V14.01,2013-01-31 05:11:00,
2013-01-30 23:15:00,17.9,16.0,29.49,WNW,284,15.0,17.0,92,0.00,,BKN070,0.17,VWS V14.01,2013-01-31 05:15:00,
2013-01-30 23:16:00,17.8,13.8,29.49,WSW,256,20.0,26.0,84,0.00,,,0.17,VWS V14.01,2013-01-31 05:16:00,
2013-01-30 23:20:00,17.8,13.8,29.49,West,265,8.0,26.0,84,0.00,,BKN070,0.17,VWS V14.01,2013-01-31 05:20:00,
2013-01-30 23:21:00,17.7,13.7,29.49,West,263,15.0,18.0,84,0.00,,,0.17,VWS V14.01,2013-01-31 05:21:00,
2013-01-30 23:25:00,17.6,13.6,29.49,WNW,284,12.0,25.0,84,0.00,,BKN070,0.17,VWS V14.01,2013-01-31 05:25:00,
2013-01-30 23:26:00,17.6,13.6,29.50,West,269,16.0,21.0,84,0.00,,,0.17,VWS V14.01,2013-01-31 05:26:00,
2013-01-30 23:30:00,17.5,13.5,29.50,SW,234,12.0,18.0,84,0.00,,BKN070,0.17,VWS V14.01,2013-01-31 05:30:00,
2013-01-30 23:32:00,17.5,13.5,29.50,West,269,16.0,16.0,84,0.00,,,0.17,VWS V14.01,2013-01-31 05:32:00,
2013-01-30 23:35:00,17.4,13.4,29.50,West,267,19.0,24.0,84,0.00,,BKN070,0.17,VWS V14.01,2013-01-31 05:35:00,
2013-01-30 23:37:00,17.3,13.3,29.50,West,263,9.0,24.0,84,0.00,,,0.17,VWS V14.01,2013-01-31 05:37:00,
2013-01-30 23:40:00,17.3,13.3,29.50,WNW,294,9.0,20.0,84,0.00,,BKN070,0.17,VWS V14.01,2013-01-31 05:40:00,
2013-01-30 23:42:00,17.3,13.0,29.50,WNW,294,14.0,21.0,83,0.00,,,0.17,VWS V14.01,2013-01-31 05:42:00,
2013-01-30 23:45:00,17.2,12.9,29.50,West,273,14.0,21.0,83,0.00,,BKN070,0.17,VWS V14.01,2013-01-31 05:45:00,
2013-01-30 23:47:00,17.2,12.9,29.50,WNW,299,13.0,19.0,83,0.00,,,0.17,VWS V14.01,2013-01-31 05:47:00,
2013-01-30 23:50:00,17.2,12.9,29.51,West,271,12.0,22.0,83,0.00,,BKN070,0.17,VWS V14.01,2013-01-31 05:50:00,
2013-01-30 23:52:00,17.1,12.8,29.51,West,269,19.0,22.0,83,0.00,,,0.17,VWS V14.01,2013-01-31 05:52:00,
2013-01-30 23:55:00,17.1,12.8,29.51,WNW,291,9.0,20.0,83,0.00,,BKN070,0.17,VWS V14.01,2013-01-31 05:55:00,
2013-01-30 23:57:00,17.1,12.8,29.51,West,269,14.0,20.0,83,0.00,,,0.17,VWS V14.01,2013-01-31 05:57:00,